sensor_id;sensor_type;location;lat;lon;timestamp;P1;durP1;ratioP1;P2;durP2;ratioP2
26718;SDS011;14326;50.794;6.060;2022-12-07T00:01:55;53.63;;;28.27;;
26718;SDS011;14326;50.794;6.060;2022-12-07T00:04:28;57.33;;;28.60;;
26718;SDS011;14326;50.794;6.060;2022-12-07T00:07:00;58.60;;;30.35;;
26718;SDS011;14326;50.794;6.060;2022-12-07T00:09:35;53.25;;;28.00;;
26718;SDS011;14326;50.794;6.060;2022-12-07T00:12:05;57.13;;;27.70;;
26718;SDS011;14326;50.794;6.060;2022-12-07T00:14:35;57.55;;;26.80;;
26718;SDS011;14326;50.794;6.060;2022-12-07T00:17:05;58.42;;;28.48;;
26718;SDS011;14326;50.794;6.060;2022-12-07T00:19:36;57.35;;;26.48;;
26718;SDS011;14326;50.794;6.060;2022-12-07T00:22:11;44.13;;;22.00;;
26718;SDS011;14326;50.794;6.060;2022-12-07T00:24:54;58.47;;;27.48;;
26718;SDS011;14326;50.794;6.060;2022-12-07T00:27:28;55.08;;;26.92;;
26718;SDS011;14326;50.794;6.060;2022-12-07T00:30:00;55.08;;;28.33;;
26718;SDS011;14326;50.794;6.060;2022-12-07T00:32:42;53.65;;;26.80;;
26718;SDS011;14326;50.794;6.060;2022-12-07T00:35:17;50.90;;;27.10;;
26718;SDS011;14326;50.794;6.060;2022-12-07T00:37:49;54.92;;;27.98;;
26718;SDS011;14326;50.794;6.060;2022-12-07T00:40:22;56.88;;;28.17;;
26718;SDS011;14326;50.794;6.060;2022-12-07T00:42:59;57.10;;;26.55;;
26718;SDS011;14326;50.794;6.060;2022-12-07T00:45:27;57.72;;;28.38;;
26718;SDS011;14326;50.794;6.060;2022-12-07T00:47:56;54.70;;;27.65;;
26718;SDS011;14326;50.794;6.060;2022-12-07T00:50:24;50.15;;;26.15;;
26718;SDS011;14326;50.794;6.060;2022-12-07T00:52:50;50.85;;;27.73;;
26718;SDS011;14326;50.794;6.060;2022-12-07T00:55:21;57.58;;;27.23;;
26718;SDS011;14326;50.794;6.060;2022-12-07T00:57:56;52.17;;;25.77;;
26718;SDS011;14326;50.794;6.060;2022-12-07T01:00:28;49.33;;;25.75;;
26718;SDS011;14326;50.794;6.060;2022-12-07T01:03:03;46.35;;;24.98;;
26718;SDS011;14326;50.794;6.060;2022-12-07T01:05:35;51.20;;;25.77;;
26718;SDS011;14326;50.794;6.060;2022-12-07T01:08:08;49.13;;;25.95;;
26718;SDS011;14326;50.794;6.060;2022-12-07T01:10:36;43.72;;;24.15;;
26718;SDS011;14326;50.794;6.060;2022-12-07T01:13:05;47.75;;;23.80;;
26718;SDS011;14326;50.794;6.060;2022-12-07T01:15:38;49.28;;;24.90;;
26718;SDS011;14326;50.794;6.060;2022-12-07T01:18:10;46.90;;;25.15;;
26718;SDS011;14326;50.794;6.060;2022-12-07T01:20:42;51.38;;;24.98;;
26718;SDS011;14326;50.794;6.060;2022-12-07T01:23:18;47.80;;;25.23;;
26718;SDS011;14326;50.794;6.060;2022-12-07T01:25:55;50.33;;;25.13;;
26718;SDS011;14326;50.794;6.060;2022-12-07T01:30:56;45.60;;;25.42;;
26718;SDS011;14326;50.794;6.060;2022-12-07T01:33:33;51.17;;;25.90;;
26718;SDS011;14326;50.794;6.060;2022-12-07T01:36:04;49.25;;;26.15;;
26718;SDS011;14326;50.794;6.060;2022-12-07T01:38:31;54.38;;;27.35;;
26718;SDS011;14326;50.794;6.060;2022-12-07T01:41:02;52.43;;;28.50;;
26718;SDS011;14326;50.794;6.060;2022-12-07T01:43:34;51.55;;;28.83;;
26718;SDS011;14326;50.794;6.060;2022-12-07T01:46:06;59.90;;;30.63;;
26718;SDS011;14326;50.794;6.060;2022-12-07T01:48:44;54.80;;;29.92;;
26718;SDS011;14326;50.794;6.060;2022-12-07T01:51:13;58.22;;;30.73;;
26718;SDS011;14326;50.794;6.060;2022-12-07T01:56:19;60.95;;;29.98;;
26718;SDS011;14326;50.794;6.060;2022-12-07T01:58:53;61.95;;;32.80;;
26718;SDS011;14326;50.794;6.060;2022-12-07T02:01:22;65.65;;;31.40;;
26718;SDS011;14326;50.794;6.060;2022-12-07T02:03:49;63.65;;;32.45;;
26718;SDS011;14326;50.794;6.060;2022-12-07T02:06:24;61.05;;;32.17;;
26718;SDS011;14326;50.794;6.060;2022-12-07T02:08:59;63.85;;;32.53;;
26718;SDS011;14326;50.794;6.060;2022-12-07T02:11:32;64.35;;;32.53;;
26718;SDS011;14326;50.794;6.060;2022-12-07T02:14:00;65.13;;;32.97;;
26718;SDS011;14326;50.794;6.060;2022-12-07T02:16:36;74.65;;;33.95;;
26718;SDS011;14326;50.794;6.060;2022-12-07T02:22:18;63.15;;;32.55;;
26718;SDS011;14326;50.794;6.060;2022-12-07T02:25:07;66.07;;;33.80;;
26718;SDS011;14326;50.794;6.060;2022-12-07T02:27:55;65.25;;;32.97;;
26718;SDS011;14326;50.794;6.060;2022-12-07T02:30:40;67.03;;;34.42;;
26718;SDS011;14326;50.794;6.060;2022-12-07T02:33:22;63.05;;;32.65;;
26718;SDS011;14326;50.794;6.060;2022-12-07T02:36:04;69.70;;;34.55;;
26718;SDS011;14326;50.794;6.060;2022-12-07T02:38:38;60.67;;;33.95;;
26718;SDS011;14326;50.794;6.060;2022-12-07T02:41:24;67.78;;;34.10;;
26718;SDS011;14326;50.794;6.060;2022-12-07T02:44:04;64.65;;;33.47;;
26718;SDS011;14326;50.794;6.060;2022-12-07T02:46:40;62.08;;;33.10;;
26718;SDS011;14326;50.794;6.060;2022-12-07T02:49:22;63.63;;;33.42;;
26718;SDS011;14326;50.794;6.060;2022-12-07T02:51:55;66.95;;;34.90;;
26718;SDS011;14326;50.794;6.060;2022-12-07T02:54:24;65.20;;;34.28;;
26718;SDS011;14326;50.794;6.060;2022-12-07T02:56:52;68.43;;;34.80;;
26718;SDS011;14326;50.794;6.060;2022-12-07T02:59:36;65.75;;;32.45;;
26718;SDS011;14326;50.794;6.060;2022-12-07T03:02:17;66.95;;;33.38;;
26718;SDS011;14326;50.794;6.060;2022-12-07T03:04:57;69.35;;;34.08;;
26718;SDS011;14326;50.794;6.060;2022-12-07T03:07:37;75.65;;;35.55;;
26718;SDS011;14326;50.794;6.060;2022-12-07T03:10:24;71.97;;;33.92;;
26718;SDS011;14326;50.794;6.060;2022-12-07T03:15:35;61.78;;;30.83;;
26718;SDS011;14326;50.794;6.060;2022-12-07T03:18:16;63.70;;;29.88;;
26718;SDS011;14326;50.794;6.060;2022-12-07T03:20:52;66.75;;;32.45;;
26718;SDS011;14326;50.794;6.060;2022-12-07T03:23:25;65.63;;;31.92;;
26718;SDS011;14326;50.794;6.060;2022-12-07T03:26:01;63.75;;;30.63;;
26718;SDS011;14326;50.794;6.060;2022-12-07T03:28:35;70.20;;;33.00;;
26718;SDS011;14326;50.794;6.060;2022-12-07T03:31:16;62.60;;;32.40;;
26718;SDS011;14326;50.794;6.060;2022-12-07T03:33:56;65.18;;;32.40;;
26718;SDS011;14326;50.794;6.060;2022-12-07T03:36:32;65.65;;;31.45;;
26718;SDS011;14326;50.794;6.060;2022-12-07T03:39:08;58.17;;;30.85;;
26718;SDS011;14326;50.794;6.060;2022-12-07T03:41:53;60.17;;;30.38;;
26718;SDS011;14326;50.794;6.060;2022-12-07T03:44:26;62.50;;;30.90;;
26718;SDS011;14326;50.794;6.060;2022-12-07T03:46:57;69.10;;;32.67;;
26718;SDS011;14326;50.794;6.060;2022-12-07T03:49:30;61.63;;;31.38;;
26718;SDS011;14326;50.794;6.060;2022-12-07T03:52:06;63.70;;;32.58;;
26718;SDS011;14326;50.794;6.060;2022-12-07T03:54:44;63.30;;;30.70;;
26718;SDS011;14326;50.794;6.060;2022-12-07T03:57:16;64.43;;;31.67;;
26718;SDS011;14326;50.794;6.060;2022-12-07T03:59:46;56.55;;;29.98;;
26718;SDS011;14326;50.794;6.060;2022-12-07T04:02:16;70.03;;;31.42;;
26718;SDS011;14326;50.794;6.060;2022-12-07T04:04:47;59.97;;;30.67;;
26718;SDS011;14326;50.794;6.060;2022-12-07T04:07:15;62.90;;;31.65;;
26718;SDS011;14326;50.794;6.060;2022-12-07T04:09:46;61.72;;;31.08;;
26718;SDS011;14326;50.794;6.060;2022-12-07T04:12:16;63.53;;;32.72;;
26718;SDS011;14326;50.794;6.060;2022-12-07T04:14:42;59.00;;;29.58;;
26718;SDS011;14326;50.794;6.060;2022-12-07T04:17:09;65.97;;;29.33;;
26718;SDS011;14326;50.794;6.060;2022-12-07T04:19:48;65.10;;;32.10;;
26718;SDS011;14326;50.794;6.060;2022-12-07T04:22:18;63.05;;;31.50;;
26718;SDS011;14326;50.794;6.060;2022-12-07T04:24:44;63.83;;;30.13;;
26718;SDS011;14326;50.794;6.060;2022-12-07T04:27:15;67.47;;;31.15;;
26718;SDS011;14326;50.794;6.060;2022-12-07T04:29:49;62.22;;;31.13;;
26718;SDS011;14326;50.794;6.060;2022-12-07T04:32:22;67.00;;;29.95;;
26718;SDS011;14326;50.794;6.060;2022-12-07T04:35:05;60.20;;;30.52;;
26718;SDS011;14326;50.794;6.060;2022-12-07T04:37:43;61.35;;;30.35;;
26718;SDS011;14326;50.794;6.060;2022-12-07T04:40:17;66.00;;;30.85;;
26718;SDS011;14326;50.794;6.060;2022-12-07T04:42:53;60.78;;;30.65;;
26718;SDS011;14326;50.794;6.060;2022-12-07T04:45:23;61.40;;;29.55;;
26718;SDS011;14326;50.794;6.060;2022-12-07T04:47:52;65.60;;;29.05;;
26718;SDS011;14326;50.794;6.060;2022-12-07T04:50:23;49.40;;;23.58;;
26718;SDS011;14326;50.794;6.060;2022-12-07T04:52:52;66.85;;;30.38;;
26718;SDS011;14326;50.794;6.060;2022-12-07T04:55:24;67.53;;;30.17;;
26718;SDS011;14326;50.794;6.060;2022-12-07T04:57:50;64.10;;;27.92;;
26718;SDS011;14326;50.794;6.060;2022-12-07T05:00:17;60.80;;;29.92;;
26718;SDS011;14326;50.794;6.060;2022-12-07T05:02:46;67.18;;;30.80;;
26718;SDS011;14326;50.794;6.060;2022-12-07T05:05:18;51.60;;;22.50;;
26718;SDS011;14326;50.794;6.060;2022-12-07T05:07:52;66.72;;;29.33;;
26718;SDS011;14326;50.794;6.060;2022-12-07T05:10:27;65.15;;;29.17;;
26718;SDS011;14326;50.794;6.060;2022-12-07T05:12:57;62.92;;;28.75;;
26718;SDS011;14326;50.794;6.060;2022-12-07T05:15:25;56.92;;;28.63;;
26718;SDS011;14326;50.794;6.060;2022-12-07T05:17:58;61.30;;;28.83;;
26718;SDS011;14326;50.794;6.060;2022-12-07T05:20:30;60.78;;;27.75;;
26718;SDS011;14326;50.794;6.060;2022-12-07T05:22:58;59.95;;;28.08;;
26718;SDS011;14326;50.794;6.060;2022-12-07T05:25:28;60.13;;;28.02;;
26718;SDS011;14326;50.794;6.060;2022-12-07T05:28:06;55.97;;;25.50;;
26718;SDS011;14326;50.794;6.060;2022-12-07T05:30:43;43.17;;;20.70;;
26718;SDS011;14326;50.794;6.060;2022-12-07T05:33:09;56.78;;;27.48;;
26718;SDS011;14326;50.794;6.060;2022-12-07T05:35:36;51.08;;;24.70;;
26718;SDS011;14326;50.794;6.060;2022-12-07T05:38:09;58.22;;;27.42;;
26718;SDS011;14326;50.794;6.060;2022-12-07T05:40:43;53.08;;;24.63;;
26718;SDS011;14326;50.794;6.060;2022-12-07T05:43:15;49.72;;;25.08;;
26718;SDS011;14326;50.794;6.060;2022-12-07T05:45:50;51.00;;;24.90;;
26718;SDS011;14326;50.794;6.060;2022-12-07T05:48:16;50.47;;;24.40;;
26718;SDS011;14326;50.794;6.060;2022-12-07T05:50:48;49.80;;;23.70;;
26718;SDS011;14326;50.794;6.060;2022-12-07T05:53:27;51.80;;;24.25;;
26718;SDS011;14326;50.794;6.060;2022-12-07T05:55:55;49.13;;;23.95;;
26718;SDS011;14326;50.794;6.060;2022-12-07T05:58:24;51.30;;;25.00;;
26718;SDS011;14326;50.794;6.060;2022-12-07T06:01:10;49.55;;;23.85;;
26718;SDS011;14326;50.794;6.060;2022-12-07T06:03:41;49.30;;;23.65;;
26718;SDS011;14326;50.794;6.060;2022-12-07T06:06:10;54.85;;;24.90;;
26718;SDS011;14326;50.794;6.060;2022-12-07T06:08:41;49.47;;;23.03;;
26718;SDS011;14326;50.794;6.060;2022-12-07T06:11:10;54.35;;;25.30;;
26718;SDS011;14326;50.794;6.060;2022-12-07T06:13:57;54.70;;;25.17;;
26718;SDS011;14326;50.794;6.060;2022-12-07T06:16:43;52.67;;;24.77;;
26718;SDS011;14326;50.794;6.060;2022-12-07T06:19:11;58.47;;;26.40;;
26718;SDS011;14326;50.794;6.060;2022-12-07T06:21:38;50.80;;;24.73;;
26718;SDS011;14326;50.794;6.060;2022-12-07T06:24:08;57.72;;;25.95;;
26718;SDS011;14326;50.794;6.060;2022-12-07T06:26:40;57.08;;;25.98;;
26718;SDS011;14326;50.794;6.060;2022-12-07T06:29:21;57.90;;;26.67;;
26718;SDS011;14326;50.794;6.060;2022-12-07T06:31:50;57.05;;;27.38;;
26718;SDS011;14326;50.794;6.060;2022-12-07T06:34:25;58.50;;;28.48;;
26718;SDS011;14326;50.794;6.060;2022-12-07T06:36:55;66.30;;;28.40;;
26718;SDS011;14326;50.794;6.060;2022-12-07T06:39:31;54.30;;;27.15;;
26718;SDS011;14326;50.794;6.060;2022-12-07T06:42:01;57.60;;;27.23;;
26718;SDS011;14326;50.794;6.060;2022-12-07T06:44:27;63.53;;;28.55;;
26718;SDS011;14326;50.794;6.060;2022-12-07T06:47:00;55.50;;;26.67;;
26718;SDS011;14326;50.794;6.060;2022-12-07T06:49:44;60.58;;;29.10;;
26718;SDS011;14326;50.794;6.060;2022-12-07T06:52:13;60.08;;;26.88;;
26718;SDS011;14326;50.794;6.060;2022-12-07T06:54:47;53.30;;;26.98;;
26718;SDS011;14326;50.794;6.060;2022-12-07T06:57:17;58.22;;;28.05;;
26718;SDS011;14326;50.794;6.060;2022-12-07T06:59:45;61.33;;;29.38;;
26718;SDS011;14326;50.794;6.060;2022-12-07T07:02:15;59.55;;;28.17;;
26718;SDS011;14326;50.794;6.060;2022-12-07T07:04:49;57.15;;;28.25;;
26718;SDS011;14326;50.794;6.060;2022-12-07T07:07:22;57.28;;;27.75;;
26718;SDS011;14326;50.794;6.060;2022-12-07T07:09:51;59.78;;;27.60;;
26718;SDS011;14326;50.794;6.060;2022-12-07T07:12:23;62.10;;;29.00;;
26718;SDS011;14326;50.794;6.060;2022-12-07T07:14:58;59.65;;;29.13;;
26718;SDS011;14326;50.794;6.060;2022-12-07T07:17:30;62.50;;;30.23;;
26718;SDS011;14326;50.794;6.060;2022-12-07T07:20:04;64.18;;;28.33;;
26718;SDS011;14326;50.794;6.060;2022-12-07T07:22:34;64.90;;;31.15;;
26718;SDS011;14326;50.794;6.060;2022-12-07T07:25:03;67.95;;;31.17;;
26718;SDS011;14326;50.794;6.060;2022-12-07T07:27:30;68.35;;;33.05;;
26718;SDS011;14326;50.794;6.060;2022-12-07T07:29:57;65.35;;;30.90;;
26718;SDS011;14326;50.794;6.060;2022-12-07T07:32:24;63.28;;;31.23;;
26718;SDS011;14326;50.794;6.060;2022-12-07T07:34:50;66.53;;;29.17;;
26718;SDS011;14326;50.794;6.060;2022-12-07T07:37:17;61.85;;;30.08;;
26718;SDS011;14326;50.794;6.060;2022-12-07T07:39:44;66.25;;;30.15;;
26718;SDS011;14326;50.794;6.060;2022-12-07T07:42:12;64.32;;;30.20;;
26718;SDS011;14326;50.794;6.060;2022-12-07T07:44:38;63.47;;;29.33;;
26718;SDS011;14326;50.794;6.060;2022-12-07T07:47:05;59.15;;;27.13;;
26718;SDS011;14326;50.794;6.060;2022-12-07T07:49:32;65.50;;;29.20;;
26718;SDS011;14326;50.794;6.060;2022-12-07T07:51:58;58.00;;;27.63;;
26718;SDS011;14326;50.794;6.060;2022-12-07T07:54:25;59.78;;;27.73;;
26718;SDS011;14326;50.794;6.060;2022-12-07T07:56:52;58.90;;;28.15;;
26718;SDS011;14326;50.794;6.060;2022-12-07T07:59:20;54.95;;;25.40;;
26718;SDS011;14326;50.794;6.060;2022-12-07T08:01:47;49.13;;;23.77;;
26718;SDS011;14326;50.794;6.060;2022-12-07T08:04:13;44.38;;;22.08;;
26718;SDS011;14326;50.794;6.060;2022-12-07T08:06:40;45.85;;;21.02;;
26718;SDS011;14326;50.794;6.060;2022-12-07T08:09:07;47.85;;;21.58;;
26718;SDS011;14326;50.794;6.060;2022-12-07T08:11:34;42.75;;;21.40;;
26718;SDS011;14326;50.794;6.060;2022-12-07T08:14:01;44.35;;;19.70;;
26718;SDS011;14326;50.794;6.060;2022-12-07T08:16:29;41.22;;;18.73;;
26718;SDS011;14326;50.794;6.060;2022-12-07T08:18:55;36.78;;;17.63;;
26718;SDS011;14326;50.794;6.060;2022-12-07T08:21:22;40.10;;;18.10;;
26718;SDS011;14326;50.794;6.060;2022-12-07T08:23:49;42.40;;;19.55;;
26718;SDS011;14326;50.794;6.060;2022-12-07T08:26:16;39.15;;;18.02;;
26718;SDS011;14326;50.794;6.060;2022-12-07T08:28:43;37.17;;;17.05;;
26718;SDS011;14326;50.794;6.060;2022-12-07T08:31:11;37.90;;;16.95;;
26718;SDS011;14326;50.794;6.060;2022-12-07T08:33:40;37.65;;;15.20;;
26718;SDS011;14326;50.794;6.060;2022-12-07T08:36:08;32.67;;;15.30;;
26718;SDS011;14326;50.794;6.060;2022-12-07T08:38:36;34.38;;;14.18;;
26718;SDS011;14326;50.794;6.060;2022-12-07T08:41:04;36.05;;;15.25;;
26718;SDS011;14326;50.794;6.060;2022-12-07T08:43:31;36.92;;;15.48;;
26718;SDS011;14326;50.794;6.060;2022-12-07T08:46:02;37.58;;;14.90;;
26718;SDS011;14326;50.794;6.060;2022-12-07T08:48:32;35.22;;;14.65;;
26718;SDS011;14326;50.794;6.060;2022-12-07T08:51:03;35.25;;;15.68;;
26718;SDS011;14326;50.794;6.060;2022-12-07T08:53:30;35.55;;;15.43;;
26718;SDS011;14326;50.794;6.060;2022-12-07T08:55:57;35.55;;;16.30;;
26718;SDS011;14326;50.794;6.060;2022-12-07T08:58:24;36.92;;;16.73;;
26718;SDS011;14326;50.794;6.060;2022-12-07T09:01:00;41.03;;;16.27;;
26718;SDS011;14326;50.794;6.060;2022-12-07T09:03:26;38.38;;;16.92;;
26718;SDS011;14326;50.794;6.060;2022-12-07T09:05:53;39.38;;;17.40;;
26718;SDS011;14326;50.794;6.060;2022-12-07T09:08:22;42.83;;;18.10;;
26718;SDS011;14326;50.794;6.060;2022-12-07T09:10:53;41.00;;;18.75;;
26718;SDS011;14326;50.794;6.060;2022-12-07T09:13:19;47.40;;;20.65;;
26718;SDS011;14326;50.794;6.060;2022-12-07T09:15:51;52.08;;;21.25;;
26718;SDS011;14326;50.794;6.060;2022-12-07T09:18:26;52.50;;;22.73;;
26718;SDS011;14326;50.794;6.060;2022-12-07T09:20:56;54.05;;;23.52;;
26718;SDS011;14326;50.794;6.060;2022-12-07T09:23:31;48.30;;;23.25;;
26718;SDS011;14326;50.794;6.060;2022-12-07T09:26:18;49.80;;;21.35;;
26718;SDS011;14326;50.794;6.060;2022-12-07T09:28:56;50.28;;;21.92;;
26718;SDS011;14326;50.794;6.060;2022-12-07T09:31:24;53.92;;;23.33;;
26718;SDS011;14326;50.794;6.060;2022-12-07T09:33:57;57.55;;;23.40;;
26718;SDS011;14326;50.794;6.060;2022-12-07T09:36:27;62.30;;;27.10;;
26718;SDS011;14326;50.794;6.060;2022-12-07T09:38:55;62.05;;;26.40;;
26718;SDS011;14326;50.794;6.060;2022-12-07T09:41:22;57.90;;;25.80;;
26718;SDS011;14326;50.794;6.060;2022-12-07T09:43:51;58.40;;;26.42;;
26718;SDS011;14326;50.794;6.060;2022-12-07T09:46:19;51.88;;;24.63;;
26718;SDS011;14326;50.794;6.060;2022-12-07T09:48:47;53.85;;;27.52;;
26718;SDS011;14326;50.794;6.060;2022-12-07T09:51:17;40.70;;;18.77;;
26718;SDS011;14326;50.794;6.060;2022-12-07T09:53:46;53.87;;;25.30;;
26718;SDS011;14326;50.794;6.060;2022-12-07T09:56:16;54.45;;;25.10;;
26718;SDS011;14326;50.794;6.060;2022-12-07T09:58:44;49.15;;;24.45;;
26718;SDS011;14326;50.794;6.060;2022-12-07T10:01:13;53.75;;;25.00;;
26718;SDS011;14326;50.794;6.060;2022-12-07T10:03:45;52.00;;;24.42;;
26718;SDS011;14326;50.794;6.060;2022-12-07T10:06:16;58.22;;;26.85;;
26718;SDS011;14326;50.794;6.060;2022-12-07T10:08:43;53.78;;;25.20;;
26718;SDS011;14326;50.794;6.060;2022-12-07T10:11:09;62.67;;;26.88;;
26718;SDS011;14326;50.794;6.060;2022-12-07T10:13:38;56.20;;;25.10;;
26718;SDS011;14326;50.794;6.060;2022-12-07T10:18:54;54.22;;;24.67;;
26718;SDS011;14326;50.794;6.060;2022-12-07T10:21:21;55.08;;;25.25;;
26718;SDS011;14326;50.794;6.060;2022-12-07T10:23:59;56.25;;;25.05;;
26718;SDS011;14326;50.794;6.060;2022-12-07T10:26:29;49.85;;;24.38;;
26718;SDS011;14326;50.794;6.060;2022-12-07T10:29:00;49.38;;;24.40;;
26718;SDS011;14326;50.794;6.060;2022-12-07T10:31:29;49.75;;;24.05;;
26718;SDS011;14326;50.794;6.060;2022-12-07T10:33:56;52.13;;;25.35;;
26718;SDS011;14326;50.794;6.060;2022-12-07T10:36:24;55.92;;;23.80;;
26718;SDS011;14326;50.794;6.060;2022-12-07T10:38:53;43.42;;;20.73;;
26718;SDS011;14326;50.794;6.060;2022-12-07T10:41:26;40.67;;;19.73;;
26718;SDS011;14326;50.794;6.060;2022-12-07T10:43:53;39.55;;;19.15;;
26718;SDS011;14326;50.794;6.060;2022-12-07T10:52:24;44.38;;;19.90;;
26718;SDS011;14326;50.794;6.060;2022-12-07T10:55:06;43.13;;;20.00;;
26718;SDS011;14326;50.794;6.060;2022-12-07T10:57:43;42.10;;;21.25;;
26718;SDS011;14326;50.794;6.060;2022-12-07T11:00:19;30.02;;;15.65;;
26718;SDS011;14326;50.794;6.060;2022-12-07T11:05:53;40.15;;;20.67;;
26718;SDS011;14326;50.794;6.060;2022-12-07T11:08:33;41.22;;;19.23;;
26718;SDS011;14326;50.794;6.060;2022-12-07T11:11:19;41.65;;;19.58;;
26718;SDS011;14326;50.794;6.060;2022-12-07T11:13:55;43.08;;;20.00;;
26718;SDS011;14326;50.794;6.060;2022-12-07T11:16:31;45.15;;;20.25;;
26718;SDS011;14326;50.794;6.060;2022-12-07T11:19:09;39.50;;;20.00;;
26718;SDS011;14326;50.794;6.060;2022-12-07T11:21:51;45.03;;;20.75;;
26718;SDS011;14326;50.794;6.060;2022-12-07T11:24:25;39.35;;;19.25;;
26718;SDS011;14326;50.794;6.060;2022-12-07T11:27:05;44.42;;;20.25;;
26718;SDS011;14326;50.794;6.060;2022-12-07T11:29:43;38.25;;;18.92;;
26718;SDS011;14326;50.794;6.060;2022-12-07T11:32:20;37.63;;;20.30;;
26718;SDS011;14326;50.794;6.060;2022-12-07T11:35:01;40.13;;;20.50;;
26718;SDS011;14326;50.794;6.060;2022-12-07T11:37:43;39.28;;;18.83;;
26718;SDS011;14326;50.794;6.060;2022-12-07T11:40:15;36.58;;;18.52;;
26718;SDS011;14326;50.794;6.060;2022-12-07T11:42:46;39.97;;;18.83;;
26718;SDS011;14326;50.794;6.060;2022-12-07T11:45:19;38.65;;;18.33;;
26718;SDS011;14326;50.794;6.060;2022-12-07T11:47:53;37.92;;;17.42;;
26718;SDS011;14326;50.794;6.060;2022-12-07T11:50:26;33.95;;;17.48;;
26718;SDS011;14326;50.794;6.060;2022-12-07T11:53:00;36.78;;;17.70;;
26718;SDS011;14326;50.794;6.060;2022-12-07T11:55:32;35.20;;;17.08;;
26718;SDS011;14326;50.794;6.060;2022-12-07T11:58:11;31.98;;;13.85;;
26718;SDS011;14326;50.794;6.060;2022-12-07T12:00:47;33.70;;;14.77;;
26718;SDS011;14326;50.794;6.060;2022-12-07T12:03:15;30.20;;;14.48;;
26718;SDS011;14326;50.794;6.060;2022-12-07T12:05:49;32.90;;;13.98;;
26718;SDS011;14326;50.794;6.060;2022-12-07T12:08:18;30.55;;;13.70;;
26718;SDS011;14326;50.794;6.060;2022-12-07T12:10:54;35.30;;;15.50;;
26718;SDS011;14326;50.794;6.060;2022-12-07T12:13:43;33.05;;;15.93;;
26718;SDS011;14326;50.794;6.060;2022-12-07T12:16:42;34.60;;;15.60;;
26718;SDS011;14326;50.794;6.060;2022-12-07T12:19:24;31.95;;;15.98;;
26718;SDS011;14326;50.794;6.060;2022-12-07T12:21:59;39.78;;;17.52;;
26718;SDS011;14326;50.794;6.060;2022-12-07T12:24:34;32.53;;;16.00;;
26718;SDS011;14326;50.794;6.060;2022-12-07T12:27:02;31.73;;;16.23;;
26718;SDS011;14326;50.794;6.060;2022-12-07T12:29:31;32.17;;;15.23;;
26718;SDS011;14326;50.794;6.060;2022-12-07T12:32:05;38.20;;;16.70;;
26718;SDS011;14326;50.794;6.060;2022-12-07T12:34:38;34.97;;;15.68;;
26718;SDS011;14326;50.794;6.060;2022-12-07T12:55:17;29.80;;;11.68;;
26718;SDS011;14326;50.794;6.060;2022-12-07T12:57:48;25.40;;;11.80;;
26718;SDS011;14326;50.794;6.060;2022-12-07T13:04:30;31.60;;;12.68;;
26718;SDS011;14326;50.794;6.060;2022-12-07T13:07:08;34.25;;;11.93;;
26718;SDS011;14326;50.794;6.060;2022-12-07T13:09:38;24.92;;;12.07;;
26718;SDS011;14326;50.794;6.060;2022-12-07T13:12:12;28.60;;;11.38;;
26718;SDS011;14326;50.794;6.060;2022-12-07T13:14:55;26.48;;;10.88;;
26718;SDS011;14326;50.794;6.060;2022-12-07T13:20:43;29.17;;;10.45;;
26718;SDS011;14326;50.794;6.060;2022-12-07T13:23:16;24.48;;;10.50;;
26718;SDS011;14326;50.794;6.060;2022-12-07T13:25:48;27.63;;;10.50;;
26718;SDS011;14326;50.794;6.060;2022-12-07T13:28:20;28.52;;;11.80;;
26718;SDS011;14326;50.794;6.060;2022-12-07T13:31:00;29.45;;;11.25;;
26718;SDS011;14326;50.794;6.060;2022-12-07T13:33:36;26.75;;;10.60;;
26718;SDS011;14326;50.794;6.060;2022-12-07T13:36:03;27.13;;;11.38;;
26718;SDS011;14326;50.794;6.060;2022-12-07T13:38:31;24.50;;;10.73;;
26718;SDS011;14326;50.794;6.060;2022-12-07T13:41:02;30.40;;;11.63;;
26718;SDS011;14326;50.794;6.060;2022-12-07T13:43:45;22.98;;;10.68;;
26718;SDS011;14326;50.794;6.060;2022-12-07T13:46:15;28.23;;;10.45;;
26718;SDS011;14326;50.794;6.060;2022-12-07T13:48:45;25.48;;;9.85;;
26718;SDS011;14326;50.794;6.060;2022-12-07T13:51:17;28.65;;;11.07;;
26718;SDS011;14326;50.794;6.060;2022-12-07T13:53:46;27.90;;;10.68;;
26718;SDS011;14326;50.794;6.060;2022-12-07T13:56:13;28.42;;;10.65;;
26718;SDS011;14326;50.794;6.060;2022-12-07T13:58:41;25.67;;;10.63;;
26718;SDS011;14326;50.794;6.060;2022-12-07T14:01:08;26.38;;;10.82;;
26718;SDS011;14326;50.794;6.060;2022-12-07T14:03:36;28.95;;;10.88;;
26718;SDS011;14326;50.794;6.060;2022-12-07T14:06:07;30.27;;;10.55;;
26718;SDS011;14326;50.794;6.060;2022-12-07T14:08:40;24.63;;;9.98;;
26718;SDS011;14326;50.794;6.060;2022-12-07T14:11:07;25.08;;;10.77;;
26718;SDS011;14326;50.794;6.060;2022-12-07T14:13:44;26.50;;;11.18;;
26718;SDS011;14326;50.794;6.060;2022-12-07T14:16:22;30.42;;;11.15;;
26718;SDS011;14326;50.794;6.060;2022-12-07T14:18:52;24.98;;;10.32;;
26718;SDS011;14326;50.794;6.060;2022-12-07T14:21:20;23.70;;;11.02;;
26718;SDS011;14326;50.794;6.060;2022-12-07T14:24:01;28.07;;;11.73;;
26718;SDS011;14326;50.794;6.060;2022-12-07T14:26:37;27.65;;;10.85;;
26718;SDS011;14326;50.794;6.060;2022-12-07T14:29:20;23.30;;;10.52;;
26718;SDS011;14326;50.794;6.060;2022-12-07T14:31:54;32.55;;;12.55;;
26718;SDS011;14326;50.794;6.060;2022-12-07T14:34:24;26.17;;;11.50;;
26718;SDS011;14326;50.794;6.060;2022-12-07T14:36:50;26.05;;;11.40;;
26718;SDS011;14326;50.794;6.060;2022-12-07T14:39:17;29.92;;;11.40;;
26718;SDS011;14326;50.794;6.060;2022-12-07T14:41:44;27.80;;;11.65;;
26718;SDS011;14326;50.794;6.060;2022-12-07T14:44:16;24.80;;;10.77;;
26718;SDS011;14326;50.794;6.060;2022-12-07T14:46:44;28.17;;;10.85;;
26718;SDS011;14326;50.794;6.060;2022-12-07T14:49:10;24.70;;;10.25;;
26718;SDS011;14326;50.794;6.060;2022-12-07T14:51:39;26.75;;;9.93;;
26718;SDS011;14326;50.794;6.060;2022-12-07T14:54:07;29.30;;;10.63;;
26718;SDS011;14326;50.794;6.060;2022-12-07T14:56:41;25.27;;;10.02;;
26718;SDS011;14326;50.794;6.060;2022-12-07T14:59:08;26.25;;;9.63;;
26718;SDS011;14326;50.794;6.060;2022-12-07T15:01:35;23.52;;;9.30;;
26718;SDS011;14326;50.794;6.060;2022-12-07T15:04:02;24.92;;;8.90;;
26718;SDS011;14326;50.794;6.060;2022-12-07T15:06:29;23.92;;;9.40;;
26718;SDS011;14326;50.794;6.060;2022-12-07T15:08:57;26.42;;;9.60;;
26718;SDS011;14326;50.794;6.060;2022-12-07T15:11:23;26.52;;;9.73;;
26718;SDS011;14326;50.794;6.060;2022-12-07T15:13:50;24.63;;;9.75;;
26718;SDS011;14326;50.794;6.060;2022-12-07T15:16:38;20.25;;;7.70;;
26718;SDS011;14326;50.794;6.060;2022-12-07T15:19:20;20.45;;;7.53;;
26718;SDS011;14326;50.794;6.060;2022-12-07T15:21:51;22.35;;;8.85;;
26718;SDS011;14326;50.794;6.060;2022-12-07T15:24:29;20.55;;;7.15;;
26718;SDS011;14326;50.794;6.060;2022-12-07T15:26:57;21.40;;;8.18;;
26718;SDS011;14326;50.794;6.060;2022-12-07T15:29:23;20.33;;;7.40;;
26718;SDS011;14326;50.794;6.060;2022-12-07T15:31:50;26.67;;;7.50;;
26718;SDS011;14326;50.794;6.060;2022-12-07T15:34:17;25.63;;;7.47;;
26718;SDS011;14326;50.794;6.060;2022-12-07T15:36:44;23.45;;;7.75;;
26718;SDS011;14326;50.794;6.060;2022-12-07T15:39:11;19.13;;;6.32;;
26718;SDS011;14326;50.794;6.060;2022-12-07T15:41:39;20.55;;;6.93;;